createdAt,value
2022-12-23T00:00:29.448Z,100.00
2022-12-23T00:02:56.532Z,100.00
2022-12-23T00:05:23.510Z,100.00
2022-12-23T00:07:50.340Z,100.00
2022-12-23T00:10:17.305Z,100.00
2022-12-23T00:13:02.606Z,100.00
2022-12-23T00:15:29.350Z,100.00
2022-12-23T00:17:56.338Z,100.00
2022-12-23T00:20:23.098Z,100.00
2022-12-23T00:23:04.919Z,100.00
2022-12-23T00:25:41.014Z,100.00
2022-12-23T00:28:20.417Z,100.00
2022-12-23T00:30:52.413Z,100.00
2022-12-23T00:33:25.672Z,100.00
2022-12-23T00:35:53.106Z,100.00
2022-12-23T00:38:41.460Z,100.00
2022-12-23T00:41:35.716Z,100.00
2022-12-23T00:44:04.536Z,100.00
2022-12-23T00:46:32.014Z,100.00
2022-12-23T00:49:17.093Z,100.00
2022-12-23T00:51:43.938Z,100.00
2022-12-23T00:54:10.769Z,100.00
2022-12-23T00:56:37.513Z,100.00
2022-12-23T00:59:04.472Z,100.00
2022-12-23T01:01:49.971Z,100.00
2022-12-23T01:04:36.884Z,100.00
2022-12-23T01:07:05.157Z,100.00
2022-12-23T01:09:31.904Z,100.00
2022-12-23T01:11:58.647Z,100.00
2022-12-23T01:14:25.785Z,100.00
2022-12-23T01:16:52.816Z,100.00
2022-12-23T01:19:19.638Z,100.00
2022-12-23T01:21:46.501Z,100.00
2022-12-23T01:24:13.296Z,100.00
2022-12-23T01:26:40.061Z,100.00
2022-12-23T01:29:06.876Z,100.00
2022-12-23T01:31:33.719Z,100.00
2022-12-23T01:34:00.485Z,100.00
2022-12-23T01:36:27.281Z,100.00
2022-12-23T01:38:57.008Z,100.00
2022-12-23T01:41:46.922Z,100.00
2022-12-23T01:44:55.640Z,100.00
2022-12-23T01:47:54.033Z,100.00
2022-12-23T01:50:40.889Z,100.00
2022-12-23T01:53:26.449Z,100.00
2022-12-23T01:56:10.683Z,100.00
2022-12-23T01:58:56.149Z,100.00
2022-12-23T02:01:42.127Z,100.00
2022-12-23T02:04:15.748Z,100.00
2022-12-23T02:07:04.258Z,100.00
2022-12-23T02:09:34.160Z,100.00
2022-12-23T02:12:09.446Z,100.00
2022-12-23T02:15:34.556Z,100.00
2022-12-23T02:18:31.835Z,100.00
2022-12-23T02:21:25.753Z,100.00
2022-12-23T02:24:29.133Z,100.00
2022-12-23T02:27:04.407Z,100.00
2022-12-23T02:29:55.963Z,100.00
2022-12-23T02:33:10.981Z,100.00
2022-12-23T02:35:46.606Z,100.00
2022-12-23T02:38:47.977Z,100.00
2022-12-23T02:41:38.659Z,100.00
2022-12-23T02:44:34.667Z,100.00
2022-12-23T02:47:11.420Z,100.00
2022-12-23T02:49:47.416Z,100.00
2022-12-23T02:52:16.295Z,100.00
2022-12-23T02:54:52.907Z,100.00
2022-12-23T02:57:25.919Z,100.00
2022-12-23T02:59:53.247Z,100.00
2022-12-23T03:02:20.623Z,100.00
2022-12-23T03:04:47.470Z,100.00
2022-12-23T03:07:30.380Z,100.00
2022-12-23T03:10:06.014Z,100.00
2022-12-23T03:13:15.279Z,100.00
2022-12-23T03:16:58.679Z,100.00
2022-12-23T03:19:39.394Z,100.00
2022-12-23T03:22:21.093Z,100.00
2022-12-23T03:25:11.265Z,100.00
2022-12-23T03:27:43.617Z,100.00
2022-12-23T03:30:15.607Z,100.00
2022-12-23T03:33:12.817Z,100.00
2022-12-23T03:35:55.519Z,100.00
2022-12-23T03:38:23.249Z,100.00
2022-12-23T03:40:56.822Z,100.00
2022-12-23T03:43:30.956Z,100.00
2022-12-23T03:46:03.373Z,100.00
2022-12-23T03:48:44.019Z,100.00
2022-12-23T03:51:18.869Z,100.00
2022-12-23T03:53:54.942Z,100.00
2022-12-23T03:56:37.389Z,100.00
2022-12-23T03:59:15.562Z,100.00
2022-12-23T04:02:24.530Z,100.00
2022-12-23T04:05:28.388Z,100.00
2022-12-23T04:08:05.567Z,100.00
2022-12-23T04:10:32.408Z,100.00
2022-12-23T04:12:59.293Z,100.00
2022-12-23T04:15:27.337Z,100.00
2022-12-23T04:17:56.639Z,100.00
2022-12-23T04:20:24.256Z,100.00
2022-12-23T04:22:51.048Z,100.00
2022-12-23T04:25:18.930Z,100.00
2022-12-23T04:27:45.793Z,100.00
2022-12-23T04:30:14.076Z,100.00
2022-12-23T04:32:42.227Z,100.00
2022-12-23T04:35:10.064Z,100.00
2022-12-23T04:37:37.139Z,100.00
2022-12-23T04:40:05.750Z,100.00
2022-12-23T04:42:32.481Z,100.00
2022-12-23T04:44:59.308Z,100.00
2022-12-23T04:47:26.766Z,100.00
2022-12-23T04:49:53.517Z,100.00
2022-12-23T04:52:20.519Z,100.00
2022-12-23T04:54:47.363Z,100.00
2022-12-23T04:57:15.827Z,100.00
2022-12-23T04:59:42.637Z,100.00
2022-12-23T05:02:10.349Z,100.00
2022-12-23T05:04:37.367Z,100.00
2022-12-23T05:07:04.246Z,100.00
2022-12-23T05:09:31.121Z,100.00
2022-12-23T05:11:57.884Z,100.00
2022-12-23T05:14:24.643Z,100.00
2022-12-23T05:16:51.697Z,100.00
2022-12-23T05:19:18.520Z,100.00
2022-12-23T05:21:45.287Z,100.00
2022-12-23T05:24:12.217Z,100.00
2022-12-23T05:26:38.977Z,100.00
2022-12-23T05:29:06.253Z,100.00
2022-12-23T05:31:33.170Z,100.00
2022-12-23T05:34:05.938Z,100.00
2022-12-23T05:36:33.527Z,100.00
2022-12-23T05:39:00.407Z,100.00
2022-12-23T05:41:27.178Z,100.00
2022-12-23T05:43:53.941Z,100.00
2022-12-23T05:46:26.167Z,100.00
2022-12-23T05:48:53.702Z,100.00
2022-12-23T05:51:20.525Z,100.00
2022-12-23T05:53:47.514Z,100.00
2022-12-23T05:56:14.292Z,100.00
2022-12-23T05:58:41.075Z,100.00
2022-12-23T06:01:08.057Z,100.00
2022-12-23T06:03:35.133Z,100.00
2022-12-23T06:06:02.040Z,100.00
2022-12-23T06:08:28.983Z,100.00
2022-12-23T06:10:55.762Z,100.00
2022-12-23T06:13:22.629Z,100.00
2022-12-23T06:15:49.528Z,100.00
2022-12-23T06:18:16.364Z,100.00
2022-12-23T06:20:47.677Z,100.00
2022-12-23T06:23:14.845Z,100.00
2022-12-23T06:25:41.700Z,100.00
2022-12-23T06:28:08.504Z,100.00
2022-12-23T06:30:35.469Z,100.00
2022-12-23T06:33:02.500Z,100.00
2022-12-23T06:35:29.328Z,100.00
2022-12-23T06:37:56.053Z,100.00
2022-12-23T06:40:22.843Z,100.00
2022-12-23T06:42:49.730Z,100.00
2022-12-23T06:45:19.385Z,100.00
2022-12-23T06:47:46.201Z,100.00
2022-12-23T06:50:13.041Z,100.00
2022-12-23T06:52:39.793Z,100.00
2022-12-23T06:55:07.030Z,100.00
2022-12-23T06:57:33.969Z,100.00
2022-12-23T07:00:00.717Z,100.00
2022-12-23T07:02:27.642Z,100.00
2022-12-23T07:04:54.524Z,100.00
2022-12-23T07:07:21.509Z,100.00
2022-12-23T07:09:48.272Z,100.00
2022-12-23T07:12:15.190Z,100.00
2022-12-23T07:14:41.954Z,100.00
2022-12-23T07:17:08.832Z,100.00
2022-12-23T07:19:35.637Z,100.00
2022-12-23T07:22:03.015Z,100.00
2022-12-23T07:24:29.827Z,100.00
2022-12-23T07:26:56.596Z,100.00
2022-12-23T07:29:23.328Z,100.00
2022-12-23T07:31:50.141Z,100.00
2022-12-23T07:34:16.997Z,100.00
2022-12-23T07:36:43.793Z,100.00
2022-12-23T07:39:11.076Z,100.00
2022-12-23T07:41:37.845Z,100.00
2022-12-23T07:44:04.683Z,100.00
2022-12-23T07:46:31.579Z,100.00
2022-12-23T07:48:58.369Z,100.00
2022-12-23T07:51:25.514Z,100.00
2022-12-23T07:53:52.496Z,100.00
2022-12-23T07:56:19.310Z,100.00
2022-12-23T07:58:50.621Z,100.00
2022-12-23T08:01:18.758Z,100.00
2022-12-23T08:03:46.238Z,100.00
2022-12-23T08:06:15.384Z,100.00
2022-12-23T08:08:45.693Z,100.00
2022-12-23T08:11:14.486Z,100.00
2022-12-23T08:13:44.170Z,100.00
2022-12-23T08:16:12.191Z,100.00
2022-12-23T08:18:41.318Z,100.00
2022-12-23T08:21:14.975Z,100.00
2022-12-23T08:23:43.649Z,100.00
2022-12-23T08:26:14.422Z,100.00
2022-12-23T08:28:43.663Z,100.00
2022-12-23T08:31:22.875Z,100.00
2022-12-23T08:33:53.255Z,100.00
2022-12-23T08:36:23.962Z,100.00
2022-12-23T08:38:53.740Z,100.00
2022-12-23T08:41:27.689Z,100.00
2022-12-23T08:43:54.957Z,100.00
2022-12-23T08:46:23.587Z,100.00
2022-12-23T08:48:50.912Z,100.00
2022-12-23T08:51:20.605Z,100.00
2022-12-23T08:53:49.066Z,100.00
2022-12-23T08:56:20.273Z,100.00
2022-12-23T08:58:50.335Z,100.00
2022-12-23T09:01:19.401Z,100.00
2022-12-23T09:03:47.166Z,100.00
2022-12-23T09:06:29.022Z,100.00
2022-12-23T09:08:58.459Z,100.00
2022-12-23T09:11:27.966Z,100.00
2022-12-23T09:13:55.232Z,100.00
2022-12-23T09:16:23.008Z,100.00
2022-12-23T09:18:49.915Z,100.00
2022-12-23T09:21:21.363Z,100.00
2022-12-23T09:23:48.759Z,100.00
2022-12-23T09:26:25.408Z,100.00
2022-12-23T09:28:53.034Z,100.00
2022-12-23T09:31:21.470Z,100.00
2022-12-23T09:33:52.975Z,100.00
2022-12-23T09:36:22.094Z,100.00
2022-12-23T09:38:57.770Z,100.00
2022-12-23T09:41:44.254Z,100.00
2022-12-23T09:44:44.753Z,100.00
2022-12-23T09:47:18.600Z,100.00
2022-12-23T09:50:00.943Z,100.00
2022-12-23T09:52:46.177Z,100.00
2022-12-23T09:55:15.257Z,100.00
2022-12-23T09:57:54.661Z,100.00
2022-12-23T10:00:22.701Z,100.00
2022-12-23T10:02:58.538Z,100.00
2022-12-23T10:05:33.225Z,100.00
2022-12-23T10:08:10.824Z,100.00
2022-12-23T10:11:05.308Z,100.00
2022-12-23T10:13:47.075Z,100.00
2022-12-23T10:16:23.408Z,100.00
2022-12-23T10:19:03.519Z,100.00
2022-12-23T10:21:48.103Z,100.00
2022-12-23T10:24:24.742Z,100.00
2022-12-23T10:26:56.651Z,100.00
2022-12-23T10:29:27.762Z,100.00
2022-12-23T10:32:28.393Z,100.00
2022-12-23T10:35:40.003Z,100.00
2022-12-23T10:38:42.610Z,100.00
2022-12-23T10:41:46.796Z,100.00
2022-12-23T10:44:47.301Z,100.00
2022-12-23T10:47:49.569Z,100.00
2022-12-23T10:50:46.924Z,100.00
2022-12-23T10:53:30.231Z,100.00
2022-12-23T10:55:58.683Z,100.00
2022-12-23T10:58:26.701Z,100.00
2022-12-23T11:00:59.958Z,100.00
2022-12-23T11:03:36.577Z,100.00
2022-12-23T11:06:06.720Z,100.00
2022-12-23T11:08:36.693Z,100.00
2022-12-23T11:11:03.681Z,100.00
2022-12-23T11:13:41.682Z,100.00
2022-12-23T11:16:22.545Z,100.00
2022-12-23T11:19:02.622Z,100.00
2022-12-23T11:21:31.564Z,100.00
2022-12-23T11:24:15.593Z,100.00
2022-12-23T11:26:44.298Z,100.00
2022-12-23T11:29:29.847Z,100.00
2022-12-23T11:31:56.732Z,100.00
2022-12-23T11:34:27.151Z,100.00
2022-12-23T11:37:06.957Z,100.00
2022-12-23T11:39:37.031Z,100.00
2022-12-23T11:42:18.650Z,100.00
2022-12-23T11:44:49.916Z,100.00
2022-12-23T11:47:22.720Z,100.00
2022-12-23T11:49:53.191Z,100.00
2022-12-23T11:52:23.087Z,100.00
2022-12-23T11:54:59.498Z,100.00
2022-12-23T11:57:45.133Z,100.00
2022-12-23T12:00:40.464Z,100.00
2022-12-23T12:03:19.175Z,100.00
2022-12-23T12:06:03.475Z,100.00
2022-12-23T12:08:38.629Z,100.00
2022-12-23T12:11:19.702Z,100.00
2022-12-23T12:13:58.654Z,100.00
2022-12-23T12:16:31.352Z,100.00
2022-12-23T12:19:05.792Z,100.00
2022-12-23T12:21:38.413Z,100.00
2022-12-23T12:24:21.845Z,100.00
2022-12-23T12:26:53.108Z,100.00
2022-12-23T12:29:48.852Z,100.00
2022-12-23T12:32:52.488Z,100.00
2022-12-23T12:35:23.557Z,100.00
2022-12-23T12:38:34.107Z,100.00
2022-12-23T12:41:18.569Z,100.00
2022-12-23T12:44:09.929Z,100.00
2022-12-23T12:46:50.029Z,100.00
2022-12-23T12:49:36.262Z,100.00
2022-12-23T12:52:16.647Z,100.00
2022-12-23T12:55:02.926Z,100.00
2022-12-23T12:57:33.470Z,100.00
2022-12-23T13:00:06.075Z,100.00
2022-12-23T13:03:17.001Z,100.00
2022-12-23T13:05:53.354Z,100.00
2022-12-23T13:08:49.451Z,100.00
2022-12-23T13:11:45.272Z,100.00
2022-12-23T13:14:33.976Z,100.00
2022-12-23T13:17:22.271Z,100.00
2022-12-23T13:19:51.553Z,100.00
2022-12-23T13:22:31.778Z,100.00
2022-12-23T13:25:23.044Z,100.00
2022-12-23T13:28:08.416Z,100.00
2022-12-23T13:30:52.892Z,100.00
2022-12-23T13:33:22.591Z,100.00
2022-12-23T13:36:10.749Z,100.00
2022-12-23T13:38:57.296Z,100.00
2022-12-23T13:41:51.426Z,100.00
2022-12-23T13:44:19.653Z,100.00
2022-12-23T13:47:15.307Z,100.00
2022-12-23T13:50:05.613Z,100.00
2022-12-23T13:53:08.514Z,100.00
2022-12-23T13:55:57.911Z,100.00
2022-12-23T13:58:27.575Z,100.00
2022-12-23T14:01:17.878Z,100.00
2022-12-23T14:03:45.585Z,100.00
2022-12-23T14:06:36.811Z,100.00
2022-12-23T14:09:03.975Z,100.00
2022-12-23T14:11:33.295Z,100.00
2022-12-23T14:14:03.109Z,100.00
2022-12-23T14:16:53.844Z,100.00
2022-12-23T14:19:58.706Z,100.00
2022-12-23T14:22:38.446Z,100.00
2022-12-23T14:25:52.481Z,100.00
2022-12-23T14:28:34.821Z,100.00
2022-12-23T14:31:05.043Z,100.00
2022-12-23T14:33:36.394Z,100.00
2022-12-23T14:36:26.279Z,100.00
2022-12-23T14:39:33.003Z,100.00
2022-12-23T14:42:05.751Z,100.00
2022-12-23T14:44:35.861Z,100.00
2022-12-23T14:47:05.998Z,100.00
2022-12-23T14:49:42.884Z,100.00
2022-12-23T14:52:44.960Z,100.00
2022-12-23T14:55:32.253Z,100.00
2022-12-23T14:58:08.407Z,100.00
2022-12-23T15:00:47.402Z,100.00
2022-12-23T15:03:17.641Z,100.00
2022-12-23T15:05:45.332Z,100.00
2022-12-23T15:08:32.516Z,100.00
2022-12-23T15:10:59.992Z,100.00
2022-12-23T15:13:29.543Z,100.00
2022-12-23T15:16:01.366Z,100.00
2022-12-23T15:18:29.397Z,100.00
2022-12-23T15:21:10.585Z,100.00
2022-12-23T15:23:37.438Z,100.00
2022-12-23T15:26:04.277Z,100.00
2022-12-23T15:28:42.132Z,100.00
2022-12-23T15:31:27.191Z,100.00
2022-12-23T15:34:04.647Z,100.00
2022-12-23T15:36:36.950Z,100.00
2022-12-23T15:39:10.468Z,100.00
2022-12-23T15:41:44.913Z,100.00
2022-12-23T15:44:19.567Z,100.00
2022-12-23T15:46:46.609Z,100.00
2022-12-23T15:49:13.445Z,100.00
2022-12-23T15:54:45.857Z,100.00
2022-12-23T15:57:19.858Z,100.00
2022-12-23T15:59:46.758Z,100.00
2022-12-23T16:02:59.841Z,100.00
2022-12-23T16:05:39.235Z,100.00
2022-12-23T16:08:29.629Z,100.00
2022-12-23T16:11:19.790Z,100.00
2022-12-23T16:14:01.596Z,100.00
2022-12-23T16:16:39.111Z,100.00
2022-12-23T16:19:27.080Z,100.00
2022-12-23T16:21:53.861Z,100.00
2022-12-23T16:24:20.972Z,100.00
2022-12-23T16:26:47.881Z,100.00
2022-12-23T16:29:15.382Z,100.00
2022-12-23T16:31:51.075Z,100.00
2022-12-23T16:34:21.203Z,100.00
2022-12-23T16:36:48.011Z,100.00
2022-12-23T16:39:21.910Z,100.00
2022-12-23T16:41:49.986Z,100.00
2022-12-23T16:44:16.820Z,100.00
2022-12-23T16:46:47.820Z,100.00
2022-12-23T16:49:19.658Z,100.00
2022-12-23T16:51:46.922Z,100.00
2022-12-23T16:54:17.660Z,100.00
2022-12-23T16:56:49.107Z,100.00
2022-12-23T16:59:16.590Z,100.00
2022-12-23T17:01:46.512Z,100.00
2022-12-23T17:04:13.511Z,100.00
2022-12-23T17:06:40.939Z,100.00
2022-12-23T17:09:08.940Z,100.00
2022-12-23T17:11:45.280Z,100.00
2022-12-23T17:14:25.578Z,100.00
2022-12-23T17:16:52.604Z,100.00
2022-12-23T17:19:28.886Z,100.00
2022-12-23T17:22:02.342Z,100.00
2022-12-23T17:24:30.016Z,100.00
2022-12-23T17:26:57.086Z,100.00
2022-12-23T17:29:23.928Z,100.00
2022-12-23T17:31:51.604Z,100.00
2022-12-23T17:34:23.762Z,100.00
2022-12-23T17:36:51.406Z,100.00
2022-12-23T17:39:19.654Z,100.00
2022-12-23T17:41:46.678Z,100.00
2022-12-23T17:44:16.032Z,100.00
2022-12-23T17:46:43.114Z,100.00
2022-12-23T17:49:09.906Z,100.00
2022-12-23T17:51:39.127Z,100.00
2022-12-23T17:54:06.620Z,100.00
2022-12-23T17:56:33.511Z,100.00
2022-12-23T17:59:00.260Z,100.00
2022-12-23T18:01:31.008Z,100.00
2022-12-23T18:04:00.049Z,100.00
2022-12-23T18:06:29.130Z,100.00
2022-12-23T18:08:58.899Z,100.00
2022-12-23T18:11:44.903Z,100.00
2022-12-23T18:14:28.091Z,100.00
2022-12-23T18:16:55.149Z,100.00
2022-12-23T18:19:21.935Z,100.00
2022-12-23T18:21:49.959Z,100.00
2022-12-23T18:24:17.101Z,100.00
2022-12-23T18:26:44.761Z,100.00
2022-12-23T18:29:11.565Z,100.00
2022-12-23T18:31:50.188Z,100.00
2022-12-23T18:34:18.189Z,100.00
2022-12-23T18:36:45.675Z,100.00
2022-12-23T18:39:12.497Z,100.00
2022-12-23T18:41:39.254Z,100.00
2022-12-23T18:44:05.986Z,100.00
2022-12-23T18:46:32.946Z,100.00
2022-12-23T18:48:59.822Z,100.00
2022-12-23T18:51:26.587Z,100.00
2022-12-23T18:53:53.321Z,100.00
2022-12-23T18:56:24.216Z,100.00
2022-12-23T18:58:50.999Z,100.00
2022-12-23T19:01:19.452Z,100.00
2022-12-23T19:03:47.214Z,100.00
2022-12-23T19:06:15.621Z,100.00
2022-12-23T19:08:43.811Z,100.00
2022-12-23T19:11:16.952Z,100.00
2022-12-23T19:13:44.496Z,100.00
2022-12-23T19:16:15.262Z,100.00
2022-12-23T19:18:42.612Z,100.00
2022-12-23T19:21:09.546Z,100.00
2022-12-23T19:23:37.319Z,100.00
2022-12-23T19:26:06.290Z,100.00
2022-12-23T19:28:33.895Z,100.00
2022-12-23T19:31:00.697Z,100.00
2022-12-23T19:33:27.641Z,100.00
2022-12-23T19:35:54.466Z,100.00
2022-12-23T19:38:21.237Z,100.00
2022-12-23T19:40:57.747Z,100.00
2022-12-23T19:43:24.504Z,100.00
2022-12-23T19:46:02.704Z,100.00
2022-12-23T19:48:30.033Z,100.00
2022-12-23T19:51:05.982Z,100.00
2022-12-23T19:53:33.040Z,100.00
2022-12-23T19:56:03.799Z,100.00
2022-12-23T19:58:36.056Z,100.00
2022-12-23T20:01:10.165Z,100.00
2022-12-23T20:03:37.963Z,100.00
2022-12-23T20:06:07.014Z,100.00
2022-12-23T20:08:34.947Z,100.00
2022-12-23T20:11:08.352Z,100.00
2022-12-23T20:13:35.651Z,100.00
2022-12-23T20:16:03.908Z,100.00
2022-12-23T20:18:31.105Z,100.00
2022-12-23T20:20:58.416Z,100.00
2022-12-23T20:23:25.359Z,100.00
2022-12-23T20:25:52.104Z,100.00
2022-12-23T20:28:19.633Z,100.00
2022-12-23T20:30:48.445Z,100.00
2022-12-23T20:33:16.090Z,100.00
2022-12-23T20:35:42.986Z,100.00
2022-12-23T20:38:09.800Z,100.00
2022-12-23T20:40:36.549Z,100.00
2022-12-23T20:43:04.128Z,100.00
2022-12-23T20:45:30.984Z,100.00
2022-12-23T20:47:57.838Z,100.00
2022-12-23T20:50:24.595Z,100.00
2022-12-23T20:52:51.351Z,100.00
2022-12-23T20:55:18.114Z,100.00
2022-12-23T20:57:45.751Z,100.00
2022-12-23T21:00:13.530Z,100.00
2022-12-23T21:02:40.907Z,100.00
2022-12-23T21:05:08.274Z,100.00
2022-12-23T21:07:35.050Z,100.00
2022-12-23T21:10:01.958Z,100.00
2022-12-23T21:12:28.789Z,100.00
2022-12-23T21:14:55.512Z,100.00
2022-12-23T21:17:23.917Z,100.00
2022-12-23T21:19:50.675Z,100.00
2022-12-23T21:22:17.433Z,100.00
2022-12-23T21:24:44.234Z,100.00
2022-12-23T21:27:10.975Z,100.00
2022-12-23T21:29:37.809Z,100.00
2022-12-23T21:32:04.754Z,100.00
2022-12-23T21:34:31.492Z,100.00
2022-12-23T21:36:58.385Z,100.00
2022-12-23T21:39:25.306Z,100.00
2022-12-23T21:41:52.812Z,100.00
2022-12-23T21:44:19.568Z,100.00
2022-12-23T21:46:46.450Z,100.00
2022-12-23T21:49:13.499Z,100.00
2022-12-23T21:51:41.713Z,100.00
2022-12-23T21:54:10.889Z,100.00
2022-12-23T21:56:39.066Z,100.00
2022-12-23T21:59:10.920Z,100.00
2022-12-23T22:01:38.423Z,100.00
2022-12-23T22:04:05.915Z,100.00
2022-12-23T22:06:39.174Z,100.00
2022-12-23T22:09:07.562Z,100.00
2022-12-23T22:11:37.142Z,100.00
2022-12-23T22:14:07.173Z,100.00
2022-12-23T22:16:35.491Z,100.00
2022-12-23T22:19:04.111Z,100.00
2022-12-23T22:21:32.316Z,100.00
2022-12-23T22:23:59.675Z,100.00
2022-12-23T22:26:31.373Z,100.00
2022-12-23T22:29:01.262Z,100.00
2022-12-23T22:31:40.269Z,100.00
2022-12-23T22:34:08.890Z,100.00
2022-12-23T22:36:36.048Z,100.00
2022-12-23T22:39:04.433Z,99.87
2022-12-23T22:41:31.840Z,99.38
2022-12-23T22:43:59.624Z,99.49
2022-12-23T22:46:27.766Z,99.17
2022-12-23T22:48:55.017Z,98.73
2022-12-23T22:51:28.008Z,97.88
2022-12-23T22:53:55.025Z,97.80
2022-12-23T22:56:23.411Z,96.55
2022-12-23T22:58:51.421Z,97.15
2022-12-23T23:01:30.600Z,98.01
2022-12-23T23:04:00.102Z,98.66
2022-12-23T23:06:38.794Z,98.92
2022-12-23T23:09:07.506Z,99.93
2022-12-23T23:11:34.628Z,99.11
2022-12-23T23:14:01.663Z,99.69
2022-12-23T23:16:29.097Z,100.00
2022-12-23T23:18:56.215Z,100.00
2022-12-23T23:21:23.186Z,100.00
2022-12-23T23:23:50.307Z,100.00
2022-12-23T23:26:17.799Z,100.00
2022-12-23T23:28:46.109Z,100.00
2022-12-23T23:33:59.906Z,100.00
2022-12-23T23:36:26.795Z,100.00
2022-12-23T23:38:53.636Z,100.00
2022-12-23T23:41:23.352Z,100.00
2022-12-23T23:43:51.628Z,100.00
2022-12-23T23:46:18.526Z,100.00
2022-12-23T23:48:45.426Z,100.00
2022-12-23T23:51:12.939Z,100.00
2022-12-23T23:53:40.522Z,100.00
2022-12-23T23:56:09.006Z,100.00
2022-12-23T23:58:37.778Z,100.00
